Flight Track Log - Related Links

Times and Time Zones

All times are in EDT time to prevent confusion due to time zone crossing. See the QXE2473 flight status page for this flight to view local times or setup timezone preferences in your user account.


Time Position Orientation Groundspeed Altitude Reporting Facility
EDT Latitude Longitude Course Direction KTS MPH feet Rate Location/Type
Sun 12:38:00 PM 47.0400 -122.3763 180° South  Level Estimated
Sun 12:39:00 PM 46.9805 -122.3258 150° Southeast  Level FlightAware Approximate
Sun 12:40:00 PM 46.9124 -122.3394 180° South  Level Estimated
Sun 12:41:00 PM 46.8443 -122.3530 180° South  Level Estimated
Sun 12:42:00 PM 46.7777 -122.3285 166° South  Level FlightAware Approximate
Sun 12:43:00 PM 46.7099 -122.3441 180° South  Level Estimated
Sun 12:44:00 PM 46.6431 -122.3208 167° South  Level FlightAware Approximate
Sun 12:45:00 PM 46.5755 -122.3388 180° South  Level Estimated
Sun 12:46:00 PM 46.5072 -122.3270 173° South  Level FlightAware Approximate
Sun 12:47:00 PM 46.4390 -122.3153 173° South  Level FlightAware Approximate
Sun 12:48:00 PM 46.3721 -122.3378 180° South  Level Estimated
Sun 12:49:00 PM 46.3049 -122.3170 168° South  Level FlightAware Approximate
Sun 12:50:00 PM 46.2386 -122.3432 199° South  Level Estimated
Sun 12:51:00 PM 46.1723 -122.3693 199° South  Level Estimated
Sun 12:52:00 PM 46.1061 -122.3954 199° South  Level Estimated
Sun 12:53:00 PM 46.0404 -122.4247 197° South  Level FlightAware Approximate
Sun 12:54:00 PM 45.9740 -122.4501 199° South  Level Estimated
Sun 12:55:00 PM 45.9097 -122.4847 200° South  Level FlightAware Approximate
Sun 12:56:00 PM 45.8429 -122.5081 199° South  Level Estimated
Sun 12:57:00 PM 45.7762 -122.5315 199° South  Level Estimated
Sun 12:58:00 PM 45.7094 -122.5548 180° South  Level Estimated
Sun 12:59:00 PM 45.6427 -122.5781 180° South  Level Estimated
Sun 01:00:00 PM 45.5833 -122.5833 180° South  Level FlightAware Approximate
Sun 01:01:00 PM 45.5887 -122.5969 180° South  Level Estimated
Sun 01:02:00 PM 45.5887 -122.5969 180° South  Level Estimated
Sun 01:03:00 PM 45.5887 -122.5969 180° South  Level Estimated
Sun 01:04:00 PM 45.5887 -122.5969 180° South  Level Estimated
Sun 01:05:00 PM 45.5887 -122.5969 180° South  Level Estimated
Sun 01:06:00 PM 45.5887 -122.5969 180° South  Level Estimated
Sun 01:07:00 PM 45.5887 -122.5969 180° South  Level Estimated
Sun 01:08:00 PM 45.5887 -122.5969 180° South  Level Estimated
Sun 01:09:00 PM 45.5887 -122.5969 180° South  Level Estimated
Sun 01:10:00 PM 45.5887 -122.5969 180° South  Level Estimated
Sun 01:11:00 PM 45.5887 -122.5969 180° South  Level Estimated
Sun 01:12:00 PM 45.5887 -122.5969 180° South  Level Estimated
Sun 01:13:00 PM 45.5887 -122.5969 180° South  Level Estimated
Sun 01:14:00 PM 45.5887 -122.5969 180° South  Level Estimated
Sun 01:15:00 PM 45.5887 -122.5969 180° South  Level Estimated

Login

Don't have an account? Register now (free) for customized features, flight alerts, and more!